sensor_id;sensor_type;location;lat;lon;timestamp;pressure;altitude;pressure_sealevel;temperature;humidity
46174;BME280;31897;52.420;13.498;2023-07-02T00:00:22;100000;;;16.99428;38.44292
46174;BME280;31897;52.420;13.498;2023-07-02T00:03:23;100000;;;17.0282;38.55596
46174;BME280;31897;52.420;13.498;2023-07-02T00:06:24;100000;;;17.06148;38.37673
46174;BME280;31897;52.420;13.498;2023-07-02T00:09:24;100000;;;17.02981;38.40683
46174;BME280;31897;52.420;13.498;2023-07-02T00:12:25;100000;;;16.97102;38.41329
46174;BME280;31897;52.420;13.498;2023-07-02T00:15:26;100000;;;16.91997;38.49721
46174;BME280;31897;52.420;13.498;2023-07-02T00:18:27;100000;;;17.00268;38.52635
46174;BME280;31897;52.420;13.498;2023-07-02T00:21:28;100000;;;17.03886;38.38885
46174;BME280;31897;52.420;13.498;2023-07-02T00:24:29;100000;;;17.02271;38.43075
46174;BME280;31897;52.420;13.498;2023-07-02T00:27:30;100000;;;17.05695;38.41256
46174;BME280;31897;52.420;13.498;2023-07-02T00:30:31;100000;;;17.13093;38.37016
46174;BME280;31897;52.420;13.498;2023-07-02T00:33:32;100000;;;17.17519;38.31608
46174;BME280;31897;52.420;13.498;2023-07-02T00:36:32;100000;;;17.19425;38.15479
46174;BME280;31897;52.420;13.498;2023-07-02T00:39:33;100000;;;17.21687;38.22023
46174;BME280;31897;52.420;13.498;2023-07-02T00:42:34;100000;;;17.23302;38.21411
46174;BME280;31897;52.420;13.498;2023-07-02T00:45:35;100000;;;17.21428;38.04121
46174;BME280;31897;52.420;13.498;2023-07-02T00:48:35;100000;;;17.18101;38.07733
46174;BME280;31897;52.420;13.498;2023-07-02T00:51:36;100000;;;17.15646;38.00595
46174;BME280;31897;52.420;13.498;2023-07-02T00:54:37;100000;;;17.14256;38.12542
46174;BME280;31897;52.420;13.498;2023-07-02T00:57:38;100000;;;17.19232;38.12496
46174;BME280;31897;52.420;13.498;2023-07-02T01:00:38;100000;;;17.16809;37.92826
46174;BME280;31897;52.420;13.498;2023-07-02T01:03:39;100000;;;17.16324;37.91637
46174;BME280;31897;52.420;13.498;2023-07-02T01:06:50;100000;;;17.10897;37.88705
46174;BME280;31897;52.420;13.498;2023-07-02T01:09:51;100000;;;17.1361;37.89276
46174;BME280;31897;52.420;13.498;2023-07-02T01:12:52;100000;;;17.19458;37.74298
46174;BME280;31897;52.420;13.498;2023-07-02T01:15:53;100000;;;17.18004;37.65957
46174;BME280;31897;52.420;13.498;2023-07-02T01:18:54;100000;;;17.19038;37.54606
46174;BME280;31897;52.420;13.498;2023-07-02T01:21:55;100000;;;17.18295;37.52226
46174;BME280;31897;52.420;13.498;2023-07-02T01:24:56;100000;;;17.13966;37.40336
46174;BME280;31897;52.420;13.498;2023-07-02T01:27:57;100000;;;17.14741;37.37343
46174;BME280;31897;52.420;13.498;2023-07-02T01:30:58;100000;;;17.15096;37.24208
46174;BME280;31897;52.420;13.498;2023-07-02T01:33:59;100000;;;17.18585;37.14618
46174;BME280;31897;52.420;13.498;2023-07-02T01:37:00;100000;;;17.1193;37.00966
46174;BME280;31897;52.420;13.498;2023-07-02T01:40:00;100000;;;17.11478;36.96196
46174;BME280;31897;52.420;13.498;2023-07-02T01:43:01;100000;;;17.09314;36.88463
46174;BME280;31897;52.420;13.498;2023-07-02T01:46:02;100000;;;17.1151;36.81274
46174;BME280;31897;52.420;13.498;2023-07-02T01:49:03;100000;;;17.12447;36.67533
46174;BME280;31897;52.420;13.498;2023-07-02T01:52:04;100000;;;17.13126;36.53794
46174;BME280;31897;52.420;13.498;2023-07-02T01:55:05;100000;;;17.10509;36.68154
46174;BME280;31897;52.420;13.498;2023-07-02T01:58:06;100000;;;17.02561;36.7601
46174;BME280;31897;52.420;13.498;2023-07-02T02:01:06;100000;;;16.9736;36.83234
46174;BME280;31897;52.420;13.498;2023-07-02T02:04:07;100000;;;17.00655;36.72453
46174;BME280;31897;52.420;13.498;2023-07-02T02:07:08;100000;;;16.99105;36.58746
46174;BME280;31897;52.420;13.498;2023-07-02T02:10:09;100000;;;16.98749;36.50992
46174;BME280;31897;52.420;13.498;2023-07-02T02:13:10;100000;;;17.06341;36.43136
46174;BME280;31897;52.420;13.498;2023-07-02T02:16:11;100000;;;17.05534;36.21658
46174;BME280;31897;52.420;13.498;2023-07-02T02:19:12;100000;;;17.02594;36.17519
46174;BME280;31897;52.420;13.498;2023-07-02T02:22:12;100000;;;16.99492;36.14576
46174;BME280;31897;52.420;13.498;2023-07-02T02:25:13;100000;;;17.0282;36.01399
46174;BME280;31897;52.420;13.498;2023-07-02T02:28:14;100000;;;17.01657;36.02609
46174;BME280;31897;52.420;13.498;2023-07-02T02:31:15;100000;;;16.98265;35.943
46174;BME280;31897;52.420;13.498;2023-07-02T02:34:15;100000;;;17.00462;36.00835
46174;BME280;31897;52.420;13.498;2023-07-02T02:37:16;100000;;;17.00139;35.86514
46174;BME280;31897;52.420;13.498;2023-07-02T02:40:17;100000;;;16.94582;35.91964
46174;BME280;31897;52.420;13.498;2023-07-02T02:43:18;100000;;;16.86893;36.00425
46174;BME280;31897;52.420;13.498;2023-07-02T02:46:19;100000;;;16.86182;36.01032
46174;BME280;31897;52.420;13.498;2023-07-02T02:49:20;100000;;;16.68995;35.95303
46174;BME280;31897;52.420;13.498;2023-07-02T02:52:21;100000;;;16.63794;36.02532
46174;BME280;31897;52.420;13.498;2023-07-02T02:55:22;100000;;;16.61888;36.07925
46174;BME280;31897;52.420;13.498;2023-07-02T02:58:23;100000;;;16.66023;36.07869
46174;BME280;31897;52.420;13.498;2023-07-02T03:01:23;100000;;;16.69997;35.87535
46174;BME280;31897;52.420;13.498;2023-07-02T03:04:24;100000;;;16.63212;35.8584
46174;BME280;31897;52.420;13.498;2023-07-02T03:07:25;100000;;;16.66831;35.88175
46174;BME280;31897;52.420;13.498;2023-07-02T03:10:26;100000;;;16.69447;35.80384
46174;BME280;31897;52.420;13.498;2023-07-02T03:13:26;100000;;;16.69577;35.84557
46174;BME280;31897;52.420;13.498;2023-07-02T03:16:27;100000;;;16.66346;35.78042
46174;BME280;31897;52.420;13.498;2023-07-02T03:19:28;100000;;;16.60305;35.86477
46174;BME280;31897;52.420;13.498;2023-07-02T03:22:29;100000;;;16.62728;35.84654
46174;BME280;31897;52.420;13.498;2023-07-02T03:25:30;100000;;;16.61242;35.82886
46174;BME280;31897;52.420;13.498;2023-07-02T03:28:31;100000;;;16.64052;35.78671
46174;BME280;31897;52.420;13.498;2023-07-02T03:31:32;100000;;;16.65377;35.82828
46174;BME280;31897;52.420;13.498;2023-07-02T03:34:33;100000;;;16.7229;35.73782
46174;BME280;31897;52.420;13.498;2023-07-02T03:37:34;100000;;;16.72775;35.55877
46174;BME280;31897;52.420;13.498;2023-07-02T03:40:35;100000;;;16.67832;35.60125
46174;BME280;31897;52.420;13.498;2023-07-02T03:43:35;100000;;;16.63988;35.55409
46174;BME280;31897;52.420;13.498;2023-07-02T03:46:36;100100;;;16.54651;35.75822
46174;BME280;31897;52.420;13.498;2023-07-02T03:49:37;100000;;;16.53811;35.77623
46174;BME280;31897;52.420;13.498;2023-07-02T03:52:38;100100;;;16.52164;35.81224
46174;BME280;31897;52.420;13.498;2023-07-02T03:55:38;100100;;;16.47318;35.87851
46174;BME280;31897;52.420;13.498;2023-07-02T03:58:39;100100;;;16.47867;35.92613
46174;BME280;31897;52.420;13.498;2023-07-02T04:01:40;100100;;;16.53617;36.02671
46174;BME280;31897;52.420;13.498;2023-07-02T04:04:41;100100;;;16.60305;35.79321
46174;BME280;31897;52.420;13.498;2023-07-02T04:07:42;100100;;;16.51453;35.72886
46174;BME280;31897;52.420;13.498;2023-07-02T04:10:42;100100;;;16.56137;35.74012
46174;BME280;31897;52.420;13.498;2023-07-02T04:13:43;100100;;;16.47964;35.61011
46174;BME280;31897;52.420;13.498;2023-07-02T04:16:44;100100;;;16.38563;35.54589
46174;BME280;31897;52.420;13.498;2023-07-02T04:19:45;100100;;;16.45444;35.59259
46174;BME280;31897;52.420;13.498;2023-07-02T04:22:46;100100;;;16.47156;35.46116
46174;BME280;31897;52.420;13.498;2023-07-02T04:25:47;100100;;;16.48868;35.29392
46174;BME280;31897;52.420;13.498;2023-07-02T04:28:48;100100;;;16.53585;35.35882
46174;BME280;31897;52.420;13.498;2023-07-02T04:31:49;100100;;;16.5323;35.12031
46174;BME280;31897;52.420;13.498;2023-07-02T04:34:49;100100;;;16.52584;35.11445
46174;BME280;31897;52.420;13.498;2023-07-02T04:37:50;100100;;;16.55814;35.1378
46174;BME280;31897;52.420;13.498;2023-07-02T04:40:51;100100;;;16.55556;35.00662
46174;BME280;31897;52.420;13.498;2023-07-02T04:43:52;100100;;;16.5659;34.9647
46174;BME280;31897;52.420;13.498;2023-07-02T04:46:59;100100;;;16.63115;34.85627
46174;BME280;31897;52.420;13.498;2023-07-02T04:50:00;100100;;;16.64472;34.75462
46174;BME280;31897;52.420;13.498;2023-07-02T04:53:01;100100;;;16.62437;34.6416
46174;BME280;31897;52.420;13.498;2023-07-02T04:56:02;100100;;;16.58108;34.70198
46174;BME280;31897;52.420;13.498;2023-07-02T04:59:03;100100;;;16.57882;34.7915
46174;BME280;31897;52.420;13.498;2023-07-02T05:02:03;100100;;;16.64472;34.65319
46174;BME280;31897;52.420;13.498;2023-07-02T05:05:04;100100;;;16.69124;34.72998
46174;BME280;31897;52.420;13.498;2023-07-02T05:08:05;100100;;;16.74003;34.55014
46174;BME280;31897;52.420;13.498;2023-07-02T05:11:06;100100;;;16.76264;34.58557
46174;BME280;31897;52.420;13.498;2023-07-02T05:14:07;100100;;;16.85956;34.48841
46174;BME280;31897;52.420;13.498;2023-07-02T05:17:08;100100;;;16.89574;34.27883
46174;BME280;31897;52.420;13.498;2023-07-02T05:20:09;100100;;;16.92127;34.22464
46174;BME280;31897;52.420;13.498;2023-07-02T05:23:10;100100;;;16.93257;33.97364
46174;BME280;31897;52.420;13.498;2023-07-02T05:26:11;100100;;;17.23011;33.65743
46174;BME280;31897;52.420;13.498;2023-07-02T05:29:11;100100;;;17.08732;33.61834
46174;BME280;31897;52.420;13.498;2023-07-02T05:32:12;100100;;;16.99525;33.66789
46174;BME280;31897;52.420;13.498;2023-07-02T05:35:13;100100;;;17.14612;33.31845
46174;BME280;31897;52.420;13.498;2023-07-02T05:38:14;100100;;;17.24207;33.40619
46174;BME280;31897;52.420;13.498;2023-07-02T05:41:17;100100;;;17.286;33.16623
46174;BME280;31897;52.420;13.498;2023-07-02T05:44:18;100100;;;17.21816;32.94645
46174;BME280;31897;52.420;13.498;2023-07-02T05:47:19;100100;;;17.24207;32.95194
46174;BME280;31897;52.420;13.498;2023-07-02T05:50:20;100100;;;17.93795;32.17104
46174;BME280;31897;52.420;13.498;2023-07-02T05:53:20;100200;;;17.77125;32.20475
46174;BME280;31897;52.420;13.498;2023-07-02T05:56:21;100100;;;17.57709;32.20314
46174;BME280;31897;52.420;13.498;2023-07-02T05:59:22;100100;;;17.56126;32.26332
46174;BME280;31897;52.420;13.498;2023-07-02T06:02:23;100200;;;17.46014;32.19978
46174;BME280;31897;52.420;13.498;2023-07-02T06:05:24;100100;;;17.37969;32.24943
46174;BME280;31897;52.420;13.498;2023-07-02T06:08:24;100200;;;17.37226;32.1898
46174;BME280;31897;52.420;13.498;2023-07-02T06:11:25;100200;;;17.39714;31.99784
46174;BME280;31897;52.420;13.498;2023-07-02T06:14:26;100200;;;17.51021;32.00124
46174;BME280;31897;52.420;13.498;2023-07-02T06:17:27;100200;;;17.5829;31.80809
46174;BME280;31897;52.420;13.498;2023-07-02T06:20:28;100200;;;17.65301;31.65084
46174;BME280;31897;52.420;13.498;2023-07-02T06:23:29;100100;;;17.7341;31.48129
46174;BME280;31897;52.420;13.498;2023-07-02T06:26:30;100100;;;17.79936;31.41385
46174;BME280;31897;52.420;13.498;2023-07-02T06:29:31;100100;;;17.89337;31.35767
46174;BME280;31897;52.420;13.498;2023-07-02T06:32:32;100100;;;17.94118;31.03305
46174;BME280;31897;52.420;13.498;2023-07-02T06:35:33;100100;;;18.01097;31.06124
46174;BME280;31897;52.420;13.498;2023-07-02T06:38:34;100100;;;18.04812;30.87456
46174;BME280;31897;52.420;13.498;2023-07-02T06:41:34;100100;;;17.97446;30.60086
46174;BME280;31897;52.420;13.498;2023-07-02T06:44:35;100100;;;17.92148;30.60225
46174;BME280;31897;52.420;13.498;2023-07-02T06:47:36;100100;;;17.99223;30.54048
46174;BME280;31897;52.420;13.498;2023-07-02T06:50:37;100100;;;18.1935;29.97766
46174;BME280;31897;52.420;13.498;2023-07-02T06:53:38;100100;;;18.1557;29.70893
46174;BME280;31897;52.420;13.498;2023-07-02T06:56:38;100100;;;18.31271;29.26666
46174;BME280;31897;52.420;13.498;2023-07-02T06:59:39;100100;;;18.50849;29.1229
46174;BME280;31897;52.420;13.498;2023-07-02T07:02:40;100100;;;18.66873;29.11214
46174;BME280;31897;52.420;13.498;2023-07-02T07:05:41;100100;;;18.84642;28.83659
46174;BME280;31897;52.420;13.498;2023-07-02T07:08:42;100100;;;18.88454;28.91952
46174;BME280;31897;52.420;13.498;2023-07-02T07:11:43;100100;;;18.89973;28.54664
46174;BME280;31897;52.420;13.498;2023-07-02T07:14:43;100100;;;18.98793;28.48982
46174;BME280;31897;52.420;13.498;2023-07-02T07:17:44;100100;;;18.90619;27.9697
46174;BME280;31897;52.420;13.498;2023-07-02T07:20:45;100100;;;18.80216;27.89497
46174;BME280;31897;52.420;13.498;2023-07-02T07:23:46;100100;;;18.81056;27.95477
46174;BME280;31897;52.420;13.498;2023-07-02T07:26:46;100100;;;18.80216;27.71476
46174;BME280;31897;52.420;13.498;2023-07-02T07:29:47;100200;;;18.72139;27.76546
46174;BME280;31897;52.420;13.498;2023-07-02T07:32:49;100100;;;18.75435;27.53613
46174;BME280;31897;52.420;13.498;2023-07-02T07:35:49;100100;;;18.8335;27.52148
46174;BME280;31897;52.420;13.498;2023-07-02T07:38:50;100100;;;19.00053;27.42575
46174;BME280;31897;52.420;13.498;2023-07-02T07:41:51;100100;;;19.20503;27.31063
46174;BME280;31897;52.420;13.498;2023-07-02T07:44:52;100100;;;19.27352;27.18201
46174;BME280;31897;52.420;13.498;2023-07-02T07:47:53;100100;;;19.33071;27.07779
46174;BME280;31897;52.420;13.498;2023-07-02T07:50:53;100200;;;19.2102;27.03984
46174;BME280;31897;52.420;13.498;2023-07-02T07:53:54;100200;;;19.10488;27.00139
46174;BME280;31897;52.420;13.498;2023-07-02T07:56:55;100200;;;19.10811;26.99527
46174;BME280;31897;52.420;13.498;2023-07-02T07:59:56;100200;;;19.06805;26.79825
46174;BME280;31897;52.420;13.498;2023-07-02T08:02:56;100200;;;18.90005;26.76205
46174;BME280;31897;52.420;13.498;2023-07-02T08:05:57;100200;;;18.78859;26.82604
46174;BME280;31897;52.420;13.498;2023-07-02T08:08:58;100200;;;18.71461;27.00284
46174;BME280;31897;52.420;13.498;2023-07-02T08:11:59;100200;;;18.66292;27.20283
46174;BME280;31897;52.420;13.498;2023-07-02T08:14:59;100200;;;18.50041;27.2864
46174;BME280;31897;52.420;13.498;2023-07-02T08:18:00;100200;;;18.48846;27.36485
46174;BME280;31897;52.420;13.498;2023-07-02T08:21:01;100200;;;18.43515;27.55273
46174;BME280;31897;52.420;13.498;2023-07-02T08:24:02;100200;;;18.39348;27.62613
46174;BME280;31897;52.420;13.498;2023-07-02T08:27:03;100200;;;18.41739;27.79941
46174;BME280;31897;52.420;13.498;2023-07-02T08:30:04;100200;;;18.41028;27.88367
46174;BME280;31897;52.420;13.498;2023-07-02T08:33:05;100200;;;18.38346;27.95655
46174;BME280;31897;52.420;13.498;2023-07-02T08:36:06;100200;;;18.32757;28.07836
46174;BME280;31897;52.420;13.498;2023-07-02T08:39:07;100200;;;18.29333;27.89945
46174;BME280;31897;52.420;13.498;2023-07-02T08:42:08;100200;;;18.12759;27.78484
46174;BME280;31897;52.420;13.498;2023-07-02T08:45:09;100200;;;18.04489;27.8415
46174;BME280;31897;52.420;13.498;2023-07-02T08:48:10;100200;;;17.9974;27.62716
46174;BME280;31897;52.420;13.498;2023-07-02T08:51:11;100200;;;17.91631;27.47992
46174;BME280;31897;52.420;13.498;2023-07-02T08:54:12;100200;;;17.77577;27.4546
46174;BME280;31897;52.420;13.498;2023-07-02T08:57:13;100200;;;17.71794;27.46251
46174;BME280;31897;52.420;13.498;2023-07-02T09:00:14;100200;;;17.72344;27.48031
46174;BME280;31897;52.420;13.498;2023-07-02T09:03:15;100200;;;17.7173;27.46852
46174;BME280;31897;52.420;13.498;2023-07-02T09:06:17;100200;;;17.78288;27.43039
46174;BME280;31897;52.420;13.498;2023-07-02T09:09:18;100200;;;17.74476;27.32376
46174;BME280;31897;52.420;13.498;2023-07-02T09:12:23;100200;;;17.7425;27.20995
46174;BME280;31897;52.420;13.498;2023-07-02T09:15:23;100200;;;17.70567;27.33705
46174;BME280;31897;52.420;13.498;2023-07-02T09:18:24;100200;;;17.68079;27.31391
46174;BME280;31897;52.420;13.498;2023-07-02T09:21:25;100200;;;17.7593;27.26933
46174;BME280;31897;52.420;13.498;2023-07-02T09:24:26;100200;;;17.77513;27.29877
46174;BME280;31897;52.420;13.498;2023-07-02T09:27:33;100200;;;17.83328;27.35677
46174;BME280;31897;52.420;13.498;2023-07-02T09:30:34;100200;;;17.84232;27.22458
46174;BME280;31897;52.420;13.498;2023-07-02T09:33:35;100200;;;17.92406;27.31177
46174;BME280;31897;52.420;13.498;2023-07-02T09:36:36;100200;;;18.02712;27.36829
46174;BME280;31897;52.420;13.498;2023-07-02T09:39:37;100200;;;18.12695;27.28697
46174;BME280;31897;52.420;13.498;2023-07-02T09:42:38;100200;;;18.15441;27.33404
46174;BME280;31897;52.420;13.498;2023-07-02T09:45:40;100200;;;18.23162;27.35546
46174;BME280;31897;52.420;13.498;2023-07-02T09:48:42;100200;;;18.23227;27.37344
46174;BME280;31897;52.420;13.498;2023-07-02T09:51:43;100200;;;18.2762;27.45598
46174;BME280;31897;52.420;13.498;2023-07-02T09:54:44;100200;;;18.4022;27.35574
46174;BME280;31897;52.420;13.498;2023-07-02T09:57:45;100200;;;18.43935;27.48656
46174;BME280;31897;52.420;13.498;2023-07-02T10:00:46;100200;;;18.60606;27.40895
46174;BME280;31897;52.420;13.498;2023-07-02T10:03:47;100200;;;18.68844;27.36414
46174;BME280;31897;52.420;13.498;2023-07-02T10:06:49;100200;;;19.38563;26.54643
46174;BME280;31897;52.420;13.498;2023-07-02T10:09:50;100200;;;19.71452;25.806
46174;BME280;31897;52.420;13.498;2023-07-02T10:12:51;100200;;;19.61404;25.74955
46174;BME280;31897;52.420;13.498;2023-07-02T10:16:00;100200;;;19.7423;25.42549
46174;BME280;31897;52.420;13.498;2023-07-02T10:19:08;100200;;;20.44337;24.36673
46174;BME280;31897;52.420;13.498;2023-07-02T10:22:09;100200;;;20.7448;23.92561
46174;BME280;31897;52.420;13.498;2023-07-02T10:25:10;100200;;;20.57616;23.96286
46174;BME280;31897;52.420;13.498;2023-07-02T10:28:14;100200;;;21.29145;23.43697
46174;BME280;31897;52.420;13.498;2023-07-02T10:31:17;100200;;;21.77445;23.05279
46174;BME280;31897;52.420;13.498;2023-07-02T10:34:28;100200;;;21.41777;23.34682
46174;BME280;31897;52.420;13.498;2023-07-02T10:37:34;100200;;;20.9729;23.67431
46174;BME280;31897;52.420;13.498;2023-07-02T10:40:35;100200;;;20.9254;23.84552
46174;BME280;31897;52.420;13.498;2023-07-02T10:43:36;100200;;;20.76742;24.08175
46174;BME280;31897;52.420;13.498;2023-07-02T10:46:44;100200;;;20.49054;23.79138
46174;BME280;31897;52.420;13.498;2023-07-02T10:49:45;100200;;;20.22465;24.11627
46174;BME280;31897;52.420;13.498;2023-07-02T10:52:46;100200;;;20.1287;24.41575
46174;BME280;31897;52.420;13.498;2023-07-02T10:55:53;100200;;;20.0741;24.56268
46174;BME280;31897;52.420;13.498;2023-07-02T10:58:54;100200;;;20.00173;24.54148
46174;BME280;31897;52.420;13.498;2023-07-02T11:01:54;100200;;;20.1497;24.51742
46174;BME280;31897;52.420;13.498;2023-07-02T11:04:56;100200;;;20.29411;24.70462
46174;BME280;31897;52.420;13.498;2023-07-02T11:08:05;100200;;;20.25954;24.64568
46174;BME280;31897;52.420;13.498;2023-07-02T11:11:08;100200;;;20.39233;24.37485
46174;BME280;31897;52.420;13.498;2023-07-02T11:14:08;100200;;;20.22077;24.36375
46174;BME280;31897;52.420;13.498;2023-07-02T11:17:09;100200;;;20.01756;24.11879
46174;BME280;31897;52.420;13.498;2023-07-02T11:20:11;100200;;;19.89253;23.9009
46174;BME280;31897;52.420;13.498;2023-07-02T11:23:19;100200;;;20.04954;23.46616
46174;BME280;31897;52.420;13.498;2023-07-02T11:26:20;100200;;;20.28733;22.82231
46174;BME280;31897;52.420;13.498;2023-07-02T11:29:21;100200;;;20.57163;22.5017
46174;BME280;31897;52.420;13.498;2023-07-02T11:32:21;100200;;;20.85982;22.24091
46174;BME280;31897;52.420;13.498;2023-07-02T11:35:27;100200;;;20.8288;21.95221
46174;BME280;31897;52.420;13.498;2023-07-02T11:38:34;100200;;;20.95674;21.15417
46174;BME280;31897;52.420;13.498;2023-07-02T11:41:36;100200;;;20.96902;20.77256
46174;BME280;31897;52.420;13.498;2023-07-02T11:44:38;100200;;;21.18645;20.58036
46174;BME280;31897;52.420;13.498;2023-07-02T11:47:38;100200;;;21.37351;20.29867
46174;BME280;31897;52.420;13.498;2023-07-02T11:50:39;100200;;;21.62002;19.94098
46174;BME280;31897;52.420;13.498;2023-07-02T11:53:40;100200;;;21.80612;19.74359
46174;BME280;31897;52.420;13.498;2023-07-02T11:56:41;100200;;;21.99867;19.80643
46174;BME280;31897;52.420;13.498;2023-07-02T11:59:42;100200;;;22.08235;19.07429
46174;BME280;31897;52.420;13.498;2023-07-02T12:02:42;100200;;;22.2174;19.53431
46174;BME280;31897;52.420;13.498;2023-07-02T12:05:43;100200;;;22.16312;19.70698
46174;BME280;31897;52.420;13.498;2023-07-02T12:08:44;100200;;;22.19866;19.8386
46174;BME280;31897;52.420;13.498;2023-07-02T12:11:45;100200;;;22.22354;19.57039
46174;BME280;31897;52.420;13.498;2023-07-02T12:14:46;100200;;;22.34082;19.33974
46174;BME280;31897;52.420;13.498;2023-07-02T12:17:46;100200;;;22.59541;19.25955
46174;BME280;31897;52.420;13.498;2023-07-02T12:20:47;100200;;;22.71624;19.28961
46174;BME280;31897;52.420;13.498;2023-07-02T12:23:48;100200;;;22.59541;19.32635
46174;BME280;31897;52.420;13.498;2023-07-02T12:26:49;100200;;;22.26134;19.14367
46174;BME280;31897;52.420;13.498;2023-07-02T12:29:49;100200;;;21.89206;19.26628
46174;BME280;31897;52.420;13.498;2023-07-02T12:32:50;100300;;;21.6323;19.41323
46174;BME280;31897;52.420;13.498;2023-07-02T12:35:51;100200;;;21.54474;19.50261
46174;BME280;31897;52.420;13.498;2023-07-02T12:38:52;100200;;;22.01709;19.06562
46174;BME280;31897;52.420;13.498;2023-07-02T12:41:52;100200;;;22.49816;18.92468
46174;BME280;31897;52.420;13.498;2023-07-02T12:44:53;100200;;;22.44162;18.84878
46174;BME280;31897;52.420;13.498;2023-07-02T12:47:54;100200;;;22.40026;18.54139
46174;BME280;31897;52.420;13.498;2023-07-02T12:50:55;100200;;;22.31174;18.63724
46174;BME280;31897;52.420;13.498;2023-07-02T12:53:56;100300;;;22.7269;17.94032
46174;BME280;31897;52.420;13.498;2023-07-02T12:56:57;100300;;;22.49654;18.25681
46174;BME280;31897;52.420;13.498;2023-07-02T12:59:57;100300;;;22.32369;18.34523
46174;BME280;31897;52.420;13.498;2023-07-02T13:02:58;100300;;;22.27426;18.354
46174;BME280;31897;52.420;13.498;2023-07-02T13:05:59;100300;;;22.79313;18.05817
46174;BME280;31897;52.420;13.498;2023-07-02T13:09:00;100300;;;23.08908;17.39097
46174;BME280;31897;52.420;13.498;2023-07-02T13:12:00;100300;;;23.29359;16.61857
46174;BME280;31897;52.420;13.498;2023-07-02T13:15:01;100300;;;22.82706;16.81622
46174;BME280;31897;52.420;13.498;2023-07-02T13:18:02;100300;;;23.20151;16.75786
46174;BME280;31897;52.420;13.498;2023-07-02T13:21:03;100300;;;23.52945;16.69602
46174;BME280;31897;52.420;13.498;2023-07-02T13:24:04;100300;;;23.74591;16.37258
46174;BME280;31897;52.420;13.498;2023-07-02T13:27:06;100300;;;24.00988;16.21054
46174;BME280;31897;52.420;13.498;2023-07-02T13:30:09;100300;;;24.24121;15.76355
46174;BME280;31897;52.420;13.498;2023-07-02T13:33:10;100300;;;24.35914;15.56718
46174;BME280;31897;52.420;13.498;2023-07-02T13:36:11;100300;;;24.57238;15.58459
46174;BME280;31897;52.420;13.498;2023-07-02T13:39:11;100300;;;24.64249;15.31771
46174;BME280;31897;52.420;13.498;2023-07-02T13:42:12;100300;;;24.86607;15.14496
46174;BME280;31897;52.420;13.498;2023-07-02T13:45:13;100300;;;25.13908;15.1401
46174;BME280;31897;52.420;13.498;2023-07-02T13:48:14;100300;;;25.25345;15.29824
46174;BME280;31897;52.420;13.498;2023-07-02T13:51:14;100300;;;25.20176;14.47575
46174;BME280;31897;52.420;13.498;2023-07-02T13:54:15;100300;;;24.96267;14.68665
46174;BME280;31897;52.420;13.498;2023-07-02T13:57:16;100300;;;25.29578;14.44526
46174;BME280;31897;52.420;13.498;2023-07-02T14:00:17;100300;;;25.52324;14.25316
46174;BME280;31897;52.420;13.498;2023-07-02T14:03:17;100300;;;25.19627;14.29263
46174;BME280;31897;52.420;13.498;2023-07-02T14:06:18;100300;;;25.44893;14.40483
46174;BME280;31897;52.420;13.498;2023-07-02T14:09:19;100300;;;25.67024;14.19467
46174;BME280;31897;52.420;13.498;2023-07-02T14:12:20;100300;;;25.76943;13.73506
46174;BME280;31897;52.420;13.498;2023-07-02T14:15:21;100300;;;25.38463;13.75426
46174;BME280;31897;52.420;13.498;2023-07-02T14:18:21;100300;;;25.70385;13.58016
46174;BME280;31897;52.420;13.498;2023-07-02T14:21:22;100300;;;25.85505;13.53339
46174;BME280;31897;52.420;13.498;2023-07-02T14:24:23;100300;;;26.03179;13.41748
46174;BME280;31897;52.420;13.498;2023-07-02T14:27:24;100300;;;26.0263;13.18495
46174;BME280;31897;52.420;13.498;2023-07-02T14:30:25;100300;;;25.96006;13.44064
46174;BME280;31897;52.420;13.498;2023-07-02T14:33:25;100300;;;25.98494;13.40221
46174;BME280;31897;52.420;13.498;2023-07-02T14:36:26;100300;;;26.16749;13.44521
46174;BME280;31897;52.420;13.498;2023-07-02T14:39:27;100300;;;26.35198;13.43291
46174;BME280;31897;52.420;13.498;2023-07-02T14:42:28;100300;;;26.55973;13.4804
46174;BME280;31897;52.420;13.498;2023-07-02T14:45:29;100300;;;26.64341;13.12502
46174;BME280;31897;52.420;13.498;2023-07-02T14:48:30;100300;;;26.5817;12.50322
46174;BME280;31897;52.420;13.498;2023-07-02T14:51:31;100300;;;26.60464;12.63053
46174;BME280;31897;52.420;13.498;2023-07-02T14:54:33;100300;;;25.79593;12.70419
46174;BME280;31897;52.420;13.498;2023-07-02T14:57:34;100300;;;25.41048;13.04247
46174;BME280;31897;52.420;13.498;2023-07-02T15:00:35;100300;;;25.39594;13.10479